sensor_id;sensor_type;location;lat;lon;timestamp;temperature;humidity
22966;DHT22;11649;48.090;9.754;2024-03-08T00:00:35;2.90;99.90
22966;DHT22;11649;48.090;9.754;2024-03-08T00:03:02;2.90;99.90
22966;DHT22;11649;48.090;9.754;2024-03-08T00:05:29;2.80;99.90
22966;DHT22;11649;48.090;9.754;2024-03-08T00:07:56;2.80;99.90
22966;DHT22;11649;48.090;9.754;2024-03-08T00:10:23;2.80;99.90
22966;DHT22;11649;48.090;9.754;2024-03-08T00:12:53;2.90;99.90
22966;DHT22;11649;48.090;9.754;2024-03-08T00:15:21;2.80;99.90
22966;DHT22;11649;48.090;9.754;2024-03-08T00:17:49;2.90;99.90
22966;DHT22;11649;48.090;9.754;2024-03-08T00:20:17;2.90;99.90
22966;DHT22;11649;48.090;9.754;2024-03-08T00:22:46;2.80;99.90
22966;DHT22;11649;48.090;9.754;2024-03-08T00:25:13;2.80;99.90
22966;DHT22;11649;48.090;9.754;2024-03-08T00:27:41;2.80;99.90
22966;DHT22;11649;48.090;9.754;2024-03-08T00:30:08;2.80;99.90
22966;DHT22;11649;48.090;9.754;2024-03-08T00:32:35;2.80;99.90
22966;DHT22;11649;48.090;9.754;2024-03-08T00:35:04;2.80;99.90
22966;DHT22;11649;48.090;9.754;2024-03-08T00:37:31;2.80;99.90
22966;DHT22;11649;48.090;9.754;2024-03-08T00:39:57;2.70;99.90
22966;DHT22;11649;48.090;9.754;2024-03-08T00:42:24;2.70;99.90
22966;DHT22;11649;48.090;9.754;2024-03-08T00:44:51;2.70;99.90
22966;DHT22;11649;48.090;9.754;2024-03-08T00:47:18;2.70;99.90
22966;DHT22;11649;48.090;9.754;2024-03-08T00:49:46;2.60;99.90
22966;DHT22;11649;48.090;9.754;2024-03-08T00:52:13;2.60;99.90
22966;DHT22;11649;48.090;9.754;2024-03-08T00:54:40;2.60;99.90
22966;DHT22;11649;48.090;9.754;2024-03-08T00:57:07;2.60;99.90
22966;DHT22;11649;48.090;9.754;2024-03-08T00:59:34;2.60;99.90
22966;DHT22;11649;48.090;9.754;2024-03-08T01:02:02;2.60;99.90
22966;DHT22;11649;48.090;9.754;2024-03-08T01:04:29;2.60;99.90
22966;DHT22;11649;48.090;9.754;2024-03-08T01:06:56;2.50;99.90
22966;DHT22;11649;48.090;9.754;2024-03-08T01:09:24;2.50;99.90
22966;DHT22;11649;48.090;9.754;2024-03-08T01:11:51;2.50;99.90
22966;DHT22;11649;48.090;9.754;2024-03-08T01:14:21;2.50;99.90
22966;DHT22;11649;48.090;9.754;2024-03-08T01:16:56;2.40;99.90
22966;DHT22;11649;48.090;9.754;2024-03-08T01:19:23;2.40;99.90
22966;DHT22;11649;48.090;9.754;2024-03-08T01:21:51;2.40;99.90
22966;DHT22;11649;48.090;9.754;2024-03-08T01:24:18;2.40;99.90
22966;DHT22;11649;48.090;9.754;2024-03-08T01:26:44;2.40;99.90
22966;DHT22;11649;48.090;9.754;2024-03-08T01:29:11;2.40;99.90
22966;DHT22;11649;48.090;9.754;2024-03-08T01:31:38;2.30;99.90
22966;DHT22;11649;48.090;9.754;2024-03-08T01:34:05;2.30;99.90
22966;DHT22;11649;48.090;9.754;2024-03-08T01:36:32;2.20;99.90
22966;DHT22;11649;48.090;9.754;2024-03-08T01:39:00;2.30;99.90
22966;DHT22;11649;48.090;9.754;2024-03-08T01:41:27;2.30;99.90
22966;DHT22;11649;48.090;9.754;2024-03-08T01:43:56;2.30;99.90
22966;DHT22;11649;48.090;9.754;2024-03-08T01:46:23;2.20;99.90
22966;DHT22;11649;48.090;9.754;2024-03-08T01:48:50;2.30;99.90
22966;DHT22;11649;48.090;9.754;2024-03-08T01:51:18;2.30;99.90
22966;DHT22;11649;48.090;9.754;2024-03-08T01:53:47;2.20;99.90
22966;DHT22;11649;48.090;9.754;2024-03-08T01:56:14;2.30;99.90
22966;DHT22;11649;48.090;9.754;2024-03-08T01:58:42;2.30;99.90
22966;DHT22;11649;48.090;9.754;2024-03-08T02:01:14;2.30;99.90
22966;DHT22;11649;48.090;9.754;2024-03-08T02:03:42;2.30;99.90
22966;DHT22;11649;48.090;9.754;2024-03-08T02:06:12;2.30;99.90
22966;DHT22;11649;48.090;9.754;2024-03-08T02:08:42;2.20;99.90
22966;DHT22;11649;48.090;9.754;2024-03-08T02:11:11;2.20;99.90
22966;DHT22;11649;48.090;9.754;2024-03-08T02:13:38;2.20;99.90
22966;DHT22;11649;48.090;9.754;2024-03-08T02:16:05;2.20;99.90
22966;DHT22;11649;48.090;9.754;2024-03-08T02:18:34;2.10;99.90
22966;DHT22;11649;48.090;9.754;2024-03-08T02:21:03;2.10;99.90
22966;DHT22;11649;48.090;9.754;2024-03-08T02:23:32;2.10;99.90
22966;DHT22;11649;48.090;9.754;2024-03-08T02:25:59;2.10;99.90
22966;DHT22;11649;48.090;9.754;2024-03-08T02:28:26;2.20;99.90
22966;DHT22;11649;48.090;9.754;2024-03-08T02:30:53;2.10;99.90
22966;DHT22;11649;48.090;9.754;2024-03-08T02:33:23;2.10;99.90
22966;DHT22;11649;48.090;9.754;2024-03-08T02:35:50;2.20;99.90
22966;DHT22;11649;48.090;9.754;2024-03-08T02:38:19;2.20;99.90
22966;DHT22;11649;48.090;9.754;2024-03-08T02:40:47;2.30;99.90
22966;DHT22;11649;48.090;9.754;2024-03-08T02:43:14;2.40;99.90
22966;DHT22;11649;48.090;9.754;2024-03-08T02:45:41;2.40;99.90
22966;DHT22;11649;48.090;9.754;2024-03-08T02:48:08;2.50;99.90
22966;DHT22;11649;48.090;9.754;2024-03-08T02:50:35;2.60;99.90
22966;DHT22;11649;48.090;9.754;2024-03-08T02:53:03;2.60;99.90
22966;DHT22;11649;48.090;9.754;2024-03-08T02:55:30;2.70;99.90
22966;DHT22;11649;48.090;9.754;2024-03-08T02:57:57;2.80;99.90
22966;DHT22;11649;48.090;9.754;2024-03-08T03:00:25;2.80;99.90
22966;DHT22;11649;48.090;9.754;2024-03-08T03:02:53;2.80;99.90
22966;DHT22;11649;48.090;9.754;2024-03-08T03:05:23;2.80;99.90
22966;DHT22;11649;48.090;9.754;2024-03-08T03:07:51;2.70;99.90
22966;DHT22;11649;48.090;9.754;2024-03-08T03:10:18;2.70;99.90
22966;DHT22;11649;48.090;9.754;2024-03-08T03:12:45;2.80;99.90
22966;DHT22;11649;48.090;9.754;2024-03-08T03:15:13;2.80;99.90
22966;DHT22;11649;48.090;9.754;2024-03-08T03:17:41;2.80;99.90
22966;DHT22;11649;48.090;9.754;2024-03-08T03:20:08;2.80;99.90
22966;DHT22;11649;48.090;9.754;2024-03-08T03:22:41;2.80;99.90
22966;DHT22;11649;48.090;9.754;2024-03-08T03:25:08;2.80;99.90
22966;DHT22;11649;48.090;9.754;2024-03-08T03:27:39;2.80;99.90
22966;DHT22;11649;48.090;9.754;2024-03-08T03:30:07;2.80;99.90
22966;DHT22;11649;48.090;9.754;2024-03-08T03:32:49;2.90;99.90
22966;DHT22;11649;48.090;9.754;2024-03-08T03:35:18;2.80;99.90
22966;DHT22;11649;48.090;9.754;2024-03-08T03:37:47;2.80;99.90
22966;DHT22;11649;48.090;9.754;2024-03-08T03:40:28;2.90;99.90
22966;DHT22;11649;48.090;9.754;2024-03-08T03:42:55;2.90;99.90
22966;DHT22;11649;48.090;9.754;2024-03-08T03:45:26;2.80;99.90
22966;DHT22;11649;48.090;9.754;2024-03-08T03:47:53;2.70;99.90
22966;DHT22;11649;48.090;9.754;2024-03-08T03:50:20;2.80;99.90
22966;DHT22;11649;48.090;9.754;2024-03-08T03:52:48;2.80;99.90
22966;DHT22;11649;48.090;9.754;2024-03-08T03:55:15;2.90;99.90
22966;DHT22;11649;48.090;9.754;2024-03-08T03:57:42;2.90;99.90
22966;DHT22;11649;48.090;9.754;2024-03-08T04:00:12;2.90;99.90
22966;DHT22;11649;48.090;9.754;2024-03-08T04:02:40;2.90;99.90
22966;DHT22;11649;48.090;9.754;2024-03-08T04:05:09;2.90;99.90
22966;DHT22;11649;48.090;9.754;2024-03-08T04:07:37;2.70;99.90
22966;DHT22;11649;48.090;9.754;2024-03-08T04:10:05;2.70;99.90
22966;DHT22;11649;48.090;9.754;2024-03-08T04:12:33;2.70;99.90
22966;DHT22;11649;48.090;9.754;2024-03-08T04:15:01;2.70;99.90
22966;DHT22;11649;48.090;9.754;2024-03-08T04:17:28;2.60;99.90
22966;DHT22;11649;48.090;9.754;2024-03-08T04:19:55;2.70;99.90
22966;DHT22;11649;48.090;9.754;2024-03-08T04:22:21;2.80;99.90
22966;DHT22;11649;48.090;9.754;2024-03-08T04:24:49;2.80;99.90
22966;DHT22;11649;48.090;9.754;2024-03-08T04:27:16;2.70;99.90
22966;DHT22;11649;48.090;9.754;2024-03-08T04:29:43;2.70;99.90
22966;DHT22;11649;48.090;9.754;2024-03-08T04:32:09;2.70;99.90
22966;DHT22;11649;48.090;9.754;2024-03-08T04:34:36;2.70;99.90
22966;DHT22;11649;48.090;9.754;2024-03-08T04:37:03;2.70;99.90
22966;DHT22;11649;48.090;9.754;2024-03-08T04:39:33;2.70;99.90
22966;DHT22;11649;48.090;9.754;2024-03-08T04:42:02;2.80;99.90
22966;DHT22;11649;48.090;9.754;2024-03-08T04:44:33;2.70;99.90
22966;DHT22;11649;48.090;9.754;2024-03-08T04:47:00;2.80;99.90
22966;DHT22;11649;48.090;9.754;2024-03-08T04:49:27;2.70;99.90
22966;DHT22;11649;48.090;9.754;2024-03-08T04:51:55;2.60;99.90
22966;DHT22;11649;48.090;9.754;2024-03-08T04:54:22;2.70;99.90
22966;DHT22;11649;48.090;9.754;2024-03-08T04:56:49;2.80;99.90
22966;DHT22;11649;48.090;9.754;2024-03-08T04:59:16;2.70;99.90
22966;DHT22;11649;48.090;9.754;2024-03-08T05:01:42;2.60;99.90
22966;DHT22;11649;48.090;9.754;2024-03-08T05:04:10;2.60;99.90
22966;DHT22;11649;48.090;9.754;2024-03-08T05:06:36;2.70;99.90
22966;DHT22;11649;48.090;9.754;2024-03-08T05:09:03;2.80;99.90
22966;DHT22;11649;48.090;9.754;2024-03-08T05:11:41;2.80;99.90
22966;DHT22;11649;48.090;9.754;2024-03-08T05:14:10;2.60;99.90
22966;DHT22;11649;48.090;9.754;2024-03-08T05:16:36;2.60;99.90
22966;DHT22;11649;48.090;9.754;2024-03-08T05:19:03;2.60;99.90
22966;DHT22;11649;48.090;9.754;2024-03-08T05:21:30;2.60;99.90
22966;DHT22;11649;48.090;9.754;2024-03-08T05:23:57;2.70;99.90
22966;DHT22;11649;48.090;9.754;2024-03-08T05:26:24;2.60;99.90
22966;DHT22;11649;48.090;9.754;2024-03-08T05:28:51;2.50;99.90
22966;DHT22;11649;48.090;9.754;2024-03-08T05:31:20;2.50;99.90
22966;DHT22;11649;48.090;9.754;2024-03-08T05:33:49;3.30;99.90
22966;DHT22;11649;48.090;9.754;2024-03-08T05:36:16;2.70;99.90
22966;DHT22;11649;48.090;9.754;2024-03-08T05:38:43;2.70;99.90
22966;DHT22;11649;48.090;9.754;2024-03-08T05:41:11;2.70;99.90
22966;DHT22;11649;48.090;9.754;2024-03-08T05:43:41;2.60;99.90
22966;DHT22;11649;48.090;9.754;2024-03-08T05:46:08;2.60;99.90
22966;DHT22;11649;48.090;9.754;2024-03-08T05:48:35;2.60;99.90
22966;DHT22;11649;48.090;9.754;2024-03-08T05:51:02;2.50;99.90
22966;DHT22;11649;48.090;9.754;2024-03-08T05:53:29;2.60;99.90
22966;DHT22;11649;48.090;9.754;2024-03-08T05:55:59;2.60;99.90
22966;DHT22;11649;48.090;9.754;2024-03-08T05:58:26;2.50;99.90
22966;DHT22;11649;48.090;9.754;2024-03-08T06:00:52;2.60;99.90
22966;DHT22;11649;48.090;9.754;2024-03-08T06:03:20;2.50;99.90
22966;DHT22;11649;48.090;9.754;2024-03-08T06:05:48;2.60;99.90
22966;DHT22;11649;48.090;9.754;2024-03-08T06:08:16;2.70;99.90
22966;DHT22;11649;48.090;9.754;2024-03-08T06:10:43;2.70;99.90
22966;DHT22;11649;48.090;9.754;2024-03-08T06:13:10;2.70;99.90
22966;DHT22;11649;48.090;9.754;2024-03-08T06:15:38;2.70;99.90
22966;DHT22;11649;48.090;9.754;2024-03-08T06:18:06;2.60;99.90
22966;DHT22;11649;48.090;9.754;2024-03-08T06:20:33;2.60;99.90
22966;DHT22;11649;48.090;9.754;2024-03-08T06:23:00;2.60;99.90
22966;DHT22;11649;48.090;9.754;2024-03-08T06:25:28;2.50;99.90
22966;DHT22;11649;48.090;9.754;2024-03-08T06:27:54;2.50;99.90
22966;DHT22;11649;48.090;9.754;2024-03-08T06:30:21;2.60;99.90
22966;DHT22;11649;48.090;9.754;2024-03-08T06:32:48;2.50;99.90
22966;DHT22;11649;48.090;9.754;2024-03-08T06:35:16;2.50;99.90
22966;DHT22;11649;48.090;9.754;2024-03-08T06:37:43;2.50;99.90
22966;DHT22;11649;48.090;9.754;2024-03-08T06:40:11;2.60;99.90
22966;DHT22;11649;48.090;9.754;2024-03-08T06:42:41;2.60;99.90
22966;DHT22;11649;48.090;9.754;2024-03-08T06:45:08;2.60;99.90
22966;DHT22;11649;48.090;9.754;2024-03-08T06:47:36;2.50;99.90
22966;DHT22;11649;48.090;9.754;2024-03-08T06:50:04;2.50;99.90
22966;DHT22;11649;48.090;9.754;2024-03-08T06:52:32;2.50;99.90
22966;DHT22;11649;48.090;9.754;2024-03-08T06:54:59;2.60;99.90
22966;DHT22;11649;48.090;9.754;2024-03-08T06:57:28;2.60;99.90
22966;DHT22;11649;48.090;9.754;2024-03-08T06:59:56;2.60;99.90
22966;DHT22;11649;48.090;9.754;2024-03-08T07:02:23;2.70;99.90
22966;DHT22;11649;48.090;9.754;2024-03-08T07:04:54;2.70;99.90
22966;DHT22;11649;48.090;9.754;2024-03-08T07:07:20;2.70;99.90
22966;DHT22;11649;48.090;9.754;2024-03-08T07:09:48;2.70;99.90
22966;DHT22;11649;48.090;9.754;2024-03-08T07:12:16;2.80;99.90
22966;DHT22;11649;48.090;9.754;2024-03-08T07:14:43;2.70;99.90
22966;DHT22;11649;48.090;9.754;2024-03-08T07:17:12;2.80;99.90
22966;DHT22;11649;48.090;9.754;2024-03-08T07:19:39;2.70;99.90
22966;DHT22;11649;48.090;9.754;2024-03-08T07:22:06;2.80;99.90
22966;DHT22;11649;48.090;9.754;2024-03-08T07:24:35;2.70;99.90
22966;DHT22;11649;48.090;9.754;2024-03-08T07:27:20;2.70;99.90
22966;DHT22;11649;48.090;9.754;2024-03-08T07:29:47;2.60;99.90
22966;DHT22;11649;48.090;9.754;2024-03-08T07:32:14;2.70;99.90
22966;DHT22;11649;48.090;9.754;2024-03-08T07:34:48;2.70;99.90
22966;DHT22;11649;48.090;9.754;2024-03-08T07:37:17;2.90;99.90
22966;DHT22;11649;48.090;9.754;2024-03-08T07:39:45;2.80;99.90
22966;DHT22;11649;48.090;9.754;2024-03-08T07:42:12;2.90;99.90
22966;DHT22;11649;48.090;9.754;2024-03-08T07:44:39;3.00;99.90
22966;DHT22;11649;48.090;9.754;2024-03-08T07:47:06;3.00;99.90
22966;DHT22;11649;48.090;9.754;2024-03-08T07:49:36;3.00;99.90
22966;DHT22;11649;48.090;9.754;2024-03-08T07:52:06;3.00;99.90
22966;DHT22;11649;48.090;9.754;2024-03-08T07:54:34;3.00;99.90
22966;DHT22;11649;48.090;9.754;2024-03-08T07:57:03;3.00;99.90
22966;DHT22;11649;48.090;9.754;2024-03-08T07:59:31;3.00;99.90
22966;DHT22;11649;48.090;9.754;2024-03-08T08:01:57;3.00;99.90
22966;DHT22;11649;48.090;9.754;2024-03-08T08:04:24;3.10;99.90
22966;DHT22;11649;48.090;9.754;2024-03-08T08:06:51;3.10;99.90
22966;DHT22;11649;48.090;9.754;2024-03-08T08:09:20;3.10;99.90
22966;DHT22;11649;48.090;9.754;2024-03-08T08:11:55;3.20;99.90
22966;DHT22;11649;48.090;9.754;2024-03-08T08:14:22;3.20;99.90
22966;DHT22;11649;48.090;9.754;2024-03-08T08:16:49;3.20;99.90
22966;DHT22;11649;48.090;9.754;2024-03-08T08:19:19;3.10;99.90
22966;DHT22;11649;48.090;9.754;2024-03-08T08:21:46;3.10;99.90
22966;DHT22;11649;48.090;9.754;2024-03-08T08:24:13;3.10;99.90
22966;DHT22;11649;48.090;9.754;2024-03-08T08:26:40;3.10;99.90
22966;DHT22;11649;48.090;9.754;2024-03-08T08:29:07;3.20;99.90
22966;DHT22;11649;48.090;9.754;2024-03-08T08:31:34;3.20;99.90
22966;DHT22;11649;48.090;9.754;2024-03-08T08:34:01;3.40;99.90
22966;DHT22;11649;48.090;9.754;2024-03-08T08:36:29;3.30;99.90
22966;DHT22;11649;48.090;9.754;2024-03-08T08:38:56;3.30;99.90
22966;DHT22;11649;48.090;9.754;2024-03-08T08:41:25;3.40;99.90
22966;DHT22;11649;48.090;9.754;2024-03-08T08:43:53;3.40;99.90
22966;DHT22;11649;48.090;9.754;2024-03-08T08:46:34;3.40;99.90
22966;DHT22;11649;48.090;9.754;2024-03-08T08:49:07;3.50;99.90
22966;DHT22;11649;48.090;9.754;2024-03-08T08:51:37;3.50;99.90
22966;DHT22;11649;48.090;9.754;2024-03-08T08:54:04;3.50;99.90
22966;DHT22;11649;48.090;9.754;2024-03-08T08:56:37;3.60;99.90
22966;DHT22;11649;48.090;9.754;2024-03-08T08:59:04;3.60;99.90
22966;DHT22;11649;48.090;9.754;2024-03-08T09:01:31;3.60;99.90
22966;DHT22;11649;48.090;9.754;2024-03-08T09:03:58;3.70;99.90
22966;DHT22;11649;48.090;9.754;2024-03-08T09:06:25;3.70;99.90
22966;DHT22;11649;48.090;9.754;2024-03-08T09:08:52;3.60;99.90
22966;DHT22;11649;48.090;9.754;2024-03-08T09:11:19;3.80;99.90
22966;DHT22;11649;48.090;9.754;2024-03-08T09:13:46;3.80;99.90
22966;DHT22;11649;48.090;9.754;2024-03-08T09:16:13;3.90;99.90
22966;DHT22;11649;48.090;9.754;2024-03-08T09:18:40;3.90;99.90
22966;DHT22;11649;48.090;9.754;2024-03-08T09:21:08;4.00;99.90
22966;DHT22;11649;48.090;9.754;2024-03-08T09:23:39;4.10;99.90
22966;DHT22;11649;48.090;9.754;2024-03-08T09:26:08;4.10;99.90
22966;DHT22;11649;48.090;9.754;2024-03-08T09:28:48;4.10;99.90
22966;DHT22;11649;48.090;9.754;2024-03-08T09:31:15;4.30;99.90
22966;DHT22;11649;48.090;9.754;2024-03-08T09:33:42;4.20;99.90
22966;DHT22;11649;48.090;9.754;2024-03-08T09:36:09;4.40;99.90
22966;DHT22;11649;48.090;9.754;2024-03-08T09:38:35;4.50;99.90
22966;DHT22;11649;48.090;9.754;2024-03-08T09:41:02;4.50;99.90
22966;DHT22;11649;48.090;9.754;2024-03-08T09:43:30;4.50;99.90
22966;DHT22;11649;48.090;9.754;2024-03-08T09:45:57;4.60;99.90
22966;DHT22;11649;48.090;9.754;2024-03-08T09:48:25;4.60;99.90
22966;DHT22;11649;48.090;9.754;2024-03-08T09:50:52;4.60;99.90
22966;DHT22;11649;48.090;9.754;2024-03-08T09:53:20;4.70;99.90
22966;DHT22;11649;48.090;9.754;2024-03-08T09:55:49;4.60;99.90
22966;DHT22;11649;48.090;9.754;2024-03-08T09:58:16;4.70;99.90
22966;DHT22;11649;48.090;9.754;2024-03-08T10:00:43;4.70;99.90
22966;DHT22;11649;48.090;9.754;2024-03-08T10:03:10;4.60;99.90
22966;DHT22;11649;48.090;9.754;2024-03-08T10:05:43;4.60;99.90
22966;DHT22;11649;48.090;9.754;2024-03-08T10:08:13;4.80;99.90
22966;DHT22;11649;48.090;9.754;2024-03-08T10:10:40;4.80;99.90
22966;DHT22;11649;48.090;9.754;2024-03-08T10:13:07;4.70;99.90
22966;DHT22;11649;48.090;9.754;2024-03-08T10:15:34;4.80;99.90
22966;DHT22;11649;48.090;9.754;2024-03-08T10:18:02;4.80;99.90
22966;DHT22;11649;48.090;9.754;2024-03-08T10:20:30;4.90;99.90
22966;DHT22;11649;48.090;9.754;2024-03-08T10:23:03;4.80;99.90
22966;DHT22;11649;48.090;9.754;2024-03-08T10:25:37;5.10;99.90
22966;DHT22;11649;48.090;9.754;2024-03-08T10:28:05;5.00;99.90
22966;DHT22;11649;48.090;9.754;2024-03-08T10:30:32;5.10;99.90
22966;DHT22;11649;48.090;9.754;2024-03-08T10:32:59;5.20;99.90
22966;DHT22;11649;48.090;9.754;2024-03-08T10:35:26;5.10;99.90
22966;DHT22;11649;48.090;9.754;2024-03-08T10:37:56;5.30;99.90
22966;DHT22;11649;48.090;9.754;2024-03-08T10:40:28;5.30;99.90
22966;DHT22;11649;48.090;9.754;2024-03-08T10:42:59;5.40;99.90
22966;DHT22;11649;48.090;9.754;2024-03-08T10:45:36;5.50;99.90
22966;DHT22;11649;48.090;9.754;2024-03-08T10:48:19;5.60;99.90
22966;DHT22;11649;48.090;9.754;2024-03-08T10:50:49;5.60;99.90
22966;DHT22;11649;48.090;9.754;2024-03-08T10:53:20;5.70;99.90
22966;DHT22;11649;48.090;9.754;2024-03-08T10:55:49;5.70;99.90
22966;DHT22;11649;48.090;9.754;2024-03-08T10:58:22;5.70;99.90
22966;DHT22;11649;48.090;9.754;2024-03-08T11:00:50;5.60;99.90
22966;DHT22;11649;48.090;9.754;2024-03-08T11:06:29;5.60;99.90
22966;DHT22;11649;48.090;9.754;2024-03-08T11:08:56;5.60;99.90
22966;DHT22;11649;48.090;9.754;2024-03-08T11:11:25;5.70;99.90
22966;DHT22;11649;48.090;9.754;2024-03-08T11:13:58;5.70;99.90
22966;DHT22;11649;48.090;9.754;2024-03-08T11:18:59;5.80;99.90
22966;DHT22;11649;48.090;9.754;2024-03-08T11:21:37;5.70;99.90
22966;DHT22;11649;48.090;9.754;2024-03-08T11:24:13;5.60;99.90
22966;DHT22;11649;48.090;9.754;2024-03-08T11:26:41;5.70;99.90
22966;DHT22;11649;48.090;9.754;2024-03-08T11:32:12;5.80;99.90
22966;DHT22;11649;48.090;9.754;2024-03-08T11:34:45;5.70;99.90
22966;DHT22;11649;48.090;9.754;2024-03-08T11:37:13;5.80;99.90
22966;DHT22;11649;48.090;9.754;2024-03-08T11:39:52;5.80;99.90
22966;DHT22;11649;48.090;9.754;2024-03-08T11:42:19;6.00;99.90
22966;DHT22;11649;48.090;9.754;2024-03-08T11:44:47;5.90;99.90
22966;DHT22;11649;48.090;9.754;2024-03-08T11:47:15;6.00;99.90
22966;DHT22;11649;48.090;9.754;2024-03-08T11:49:43;6.00;99.90
22966;DHT22;11649;48.090;9.754;2024-03-08T11:52:11;6.10;99.90
22966;DHT22;11649;48.090;9.754;2024-03-08T11:54:42;6.20;99.90
22966;DHT22;11649;48.090;9.754;2024-03-08T11:57:10;6.20;99.90
22966;DHT22;11649;48.090;9.754;2024-03-08T11:59:37;6.20;99.90
22966;DHT22;11649;48.090;9.754;2024-03-08T12:02:07;6.30;99.90
22966;DHT22;11649;48.090;9.754;2024-03-08T12:04:38;6.40;99.90
22966;DHT22;11649;48.090;9.754;2024-03-08T12:07:05;6.30;99.90
22966;DHT22;11649;48.090;9.754;2024-03-08T12:09:36;6.30;99.90
22966;DHT22;11649;48.090;9.754;2024-03-08T12:12:04;6.30;99.90
22966;DHT22;11649;48.090;9.754;2024-03-08T12:14:34;6.40;99.90
22966;DHT22;11649;48.090;9.754;2024-03-08T12:17:01;6.50;99.90
22966;DHT22;11649;48.090;9.754;2024-03-08T12:19:28;6.60;99.90
22966;DHT22;11649;48.090;9.754;2024-03-08T12:21:55;6.60;99.90
22966;DHT22;11649;48.090;9.754;2024-03-08T12:24:22;6.60;99.90
22966;DHT22;11649;48.090;9.754;2024-03-08T12:26:49;6.80;99.90
22966;DHT22;11649;48.090;9.754;2024-03-08T12:29:19;6.90;99.90
22966;DHT22;11649;48.090;9.754;2024-03-08T12:31:54;6.80;99.90
22966;DHT22;11649;48.090;9.754;2024-03-08T12:34:21;6.90;99.90
22966;DHT22;11649;48.090;9.754;2024-03-08T12:36:50;7.10;99.90
22966;DHT22;11649;48.090;9.754;2024-03-08T12:39:19;7.30;99.90
22966;DHT22;11649;48.090;9.754;2024-03-08T12:41:52;7.40;99.90
22966;DHT22;11649;48.090;9.754;2024-03-08T12:44:20;7.60;99.90
22966;DHT22;11649;48.090;9.754;2024-03-08T12:46:48;7.70;99.90
22966;DHT22;11649;48.090;9.754;2024-03-08T12:49:19;7.90;99.90
22966;DHT22;11649;48.090;9.754;2024-03-08T12:51:49;8.30;99.90
22966;DHT22;11649;48.090;9.754;2024-03-08T12:54:15;8.50;99.90
22966;DHT22;11649;48.090;9.754;2024-03-08T12:56:42;8.40;99.90
22966;DHT22;11649;48.090;9.754;2024-03-08T12:59:09;8.60;99.90
22966;DHT22;11649;48.090;9.754;2024-03-08T13:01:36;8.60;99.90
22966;DHT22;11649;48.090;9.754;2024-03-08T13:04:04;8.80;99.90
22966;DHT22;11649;48.090;9.754;2024-03-08T13:06:33;9.10;99.90
22966;DHT22;11649;48.090;9.754;2024-03-08T13:09:00;9.10;99.90
22966;DHT22;11649;48.090;9.754;2024-03-08T13:11:32;9.10;99.90
22966;DHT22;11649;48.090;9.754;2024-03-08T13:14:04;9.00;99.90
22966;DHT22;11649;48.090;9.754;2024-03-08T13:16:32;9.00;99.90
22966;DHT22;11649;48.090;9.754;2024-03-08T13:19:01;8.90;99.90
22966;DHT22;11649;48.090;9.754;2024-03-08T13:21:28;8.90;99.90
22966;DHT22;11649;48.090;9.754;2024-03-08T13:23:57;9.00;99.90
22966;DHT22;11649;48.090;9.754;2024-03-08T13:26:27;9.80;99.90
22966;DHT22;11649;48.090;9.754;2024-03-08T13:28:59;10.60;96.00
22966;DHT22;11649;48.090;9.754;2024-03-08T13:31:26;10.90;92.00
22966;DHT22;11649;48.090;9.754;2024-03-08T13:33:53;11.00;92.10
22966;DHT22;11649;48.090;9.754;2024-03-08T13:36:25;11.20;90.70
22966;DHT22;11649;48.090;9.754;2024-03-08T13:38:56;11.60;86.80
22966;DHT22;11649;48.090;9.754;2024-03-08T13:41:25;11.40;83.30
22966;DHT22;11649;48.090;9.754;2024-03-08T13:43:54;11.40;84.10
22966;DHT22;11649;48.090;9.754;2024-03-08T13:46:22;11.50;88.00
22966;DHT22;11649;48.090;9.754;2024-03-08T13:48:51;12.10;84.00
22966;DHT22;11649;48.090;9.754;2024-03-08T13:51:20;12.30;80.90
22966;DHT22;11649;48.090;9.754;2024-03-08T13:53:49;12.80;78.60
22966;DHT22;11649;48.090;9.754;2024-03-08T13:56:16;13.30;80.80
22966;DHT22;11649;48.090;9.754;2024-03-08T13:58:43;13.90;73.20
22966;DHT22;11649;48.090;9.754;2024-03-08T14:01:10;15.00;64.50
22966;DHT22;11649;48.090;9.754;2024-03-08T14:03:39;15.30;62.50
22966;DHT22;11649;48.090;9.754;2024-03-08T14:06:09;16.70;57.60
22966;DHT22;11649;48.090;9.754;2024-03-08T14:08:36;18.00;55.00
22966;DHT22;11649;48.090;9.754;2024-03-08T14:11:04;18.70;50.60
22966;DHT22;11649;48.090;9.754;2024-03-08T14:13:43;19.70;47.80
22966;DHT22;11649;48.090;9.754;2024-03-08T14:16:14;20.30;44.00
22966;DHT22;11649;48.090;9.754;2024-03-08T14:18:42;20.60;42.50
22966;DHT22;11649;48.090;9.754;2024-03-08T14:21:09;19.70;43.90
22966;DHT22;11649;48.090;9.754;2024-03-08T14:23:37;19.00;43.60
22966;DHT22;11649;48.090;9.754;2024-03-08T14:26:04;17.70;46.30
22966;DHT22;11649;48.090;9.754;2024-03-08T14:28:34;17.10;49.60
22966;DHT22;11649;48.090;9.754;2024-03-08T14:31:01;17.10;51.20
22966;DHT22;11649;48.090;9.754;2024-03-08T14:33:33;15.80;51.90
22966;DHT22;11649;48.090;9.754;2024-03-08T14:36:00;15.20;55.50
22966;DHT22;11649;48.090;9.754;2024-03-08T14:38:27;14.70;57.90
22966;DHT22;11649;48.090;9.754;2024-03-08T14:40:54;14.40;58.50
22966;DHT22;11649;48.090;9.754;2024-03-08T14:43:22;14.10;59.50
22966;DHT22;11649;48.090;9.754;2024-03-08T14:45:49;14.30;62.20
22966;DHT22;11649;48.090;9.754;2024-03-08T14:48:17;14.80;59.30
22966;DHT22;11649;48.090;9.754;2024-03-08T14:50:45;14.70;60.50
22966;DHT22;11649;48.090;9.754;2024-03-08T14:53:14;14.60;62.60
22966;DHT22;11649;48.090;9.754;2024-03-08T14:55:43;14.50;60.60
22966;DHT22;11649;48.090;9.754;2024-03-08T14:58:13;14.50;62.00
22966;DHT22;11649;48.090;9.754;2024-03-08T15:00:41;14.90;63.50
22966;DHT22;11649;48.090;9.754;2024-03-08T15:03:08;13.30;63.60
22966;DHT22;11649;48.090;9.754;2024-03-08T15:05:41;13.50;66.20
22966;DHT22;11649;48.090;9.754;2024-03-08T15:08:15;14.30;70.10
22966;DHT22;11649;48.090;9.754;2024-03-08T15:10:47;13.50;69.60
22966;DHT22;11649;48.090;9.754;2024-03-08T15:13:15;14.40;70.60
22966;DHT22;11649;48.090;9.754;2024-03-08T15:15:49;12.50;70.00
22966;DHT22;11649;48.090;9.754;2024-03-08T15:18:25;13.00;65.60
22966;DHT22;11649;48.090;9.754;2024-03-08T15:21:15;14.00;64.90
22966;DHT22;11649;48.090;9.754;2024-03-08T15:23:46;14.10;63.60
22966;DHT22;11649;48.090;9.754;2024-03-08T15:26:18;13.80;66.80
22966;DHT22;11649;48.090;9.754;2024-03-08T15:28:45;13.40;69.30
22966;DHT22;11649;48.090;9.754;2024-03-08T15:31:13;12.90;71.70
22966;DHT22;11649;48.090;9.754;2024-03-08T15:33:40;12.60;73.80
22966;DHT22;11649;48.090;9.754;2024-03-08T15:36:12;14.00;77.30
22966;DHT22;11649;48.090;9.754;2024-03-08T15:38:42;11.80;86.80
22966;DHT22;11649;48.090;9.754;2024-03-08T15:41:18;12.90;84.10
22966;DHT22;11649;48.090;9.754;2024-03-08T15:43:45;13.00;88.10
22966;DHT22;11649;48.090;9.754;2024-03-08T15:46:12;11.60;89.40
22966;DHT22;11649;48.090;9.754;2024-03-08T15:48:39;11.70;88.80
22966;DHT22;11649;48.090;9.754;2024-03-08T15:51:08;11.40;88.10
22966;DHT22;11649;48.090;9.754;2024-03-08T15:53:40;11.10;91.40
22966;DHT22;11649;48.090;9.754;2024-03-08T15:56:07;11.20;89.90
22966;DHT22;11649;48.090;9.754;2024-03-08T15:58:35;11.10;91.30